map of KOLG home
Great Circle Mapper logo
KOLG - Airport
Location
City:  Solon Springs, Wisconsin, United States
Name:Solon Springs Municipal Airport
ICAO:KOLG
FAA:OLG

Details
Type:Airport (Airfield)
Use:Public/Civil
Latitude:4618'53"N (46.314751)
Longitude:9148'59"W (-91.816375)
Datum:WGS 1984
Elevation:1102 ft (336 m)
Runways:1
Longest:3099 × 60 ft (945 × 18.5 m), paved

Time
Time Zone:UTC-6 (DST-5)
Local Time:

Weather
METAR:KOLG 230455Z AUTO 18009G16KT 150V210 10SM BKN120 11/03 A3004 RMK AO1

Related Locations
Nearby:
Farthest:MGV: 10789 mi / 17363 km
Margaret River, WA, AU

Find:

   beyond  
but within

Other Information
Maps:
NOTAMs:
Links:
Sources:

  
flag of United States
flag of Wisconsin
  

Sectional Chart

Flight Planning
at skyvector.com

Satellite Image

Google Maps Satellite View

 

Copyright © 2004-2014 Karl L. Swartz. All rights reserved.
The Great Circle Mapper name and logo are trademarks of the Great Circle Mapper.
All other trademarks mentioned herein belong to their respective owners.
Please see credits for attibutions and further copyright information.

  Follow gcmap on Facebook Follow gcmap on Twitter

hCard Microformat

Geo Microformat